VOE7NV LEAS-LPPR
Flight info
| Callsign | VOE7NV |
|---|---|
| Flight time | 0h 42m |
| Altitude | 23000 |
| Route | KUVAN N872 RALUS DCT BELDU DCT INKIT |
| Aircraft | A320/M-SDE3FGHIRWY/LB1 |
Departure
| Time | 2026-05-01 09:59 |
|---|---|
| Airport | Asturias Airport (LEAS) |
Arrival
| Time | 2026-05-01 10:41 |
|---|---|
| Airport | Francisco de Sá Carneiro Airport (LPPR) |
| Time | Latitude | Longitude | Altitude | Speed | Heading |
|---|---|---|---|---|---|
| 2026-05-01 09:24 | 43.56014 | -6.03270 | 426 ft | 0 kts | 243° |
| 2026-05-01 09:54 | 43.56014 | -6.03271 | 426 ft | 1 kts | 243° |
| 2026-05-01 09:54 | 43.56034 | -6.03300 | 422 ft | 7 kts | 3° |
| 2026-05-01 09:54 | 43.56080 | -6.03240 | 417 ft | 10 kts | 38° |
| 2026-05-01 09:55 | 43.56118 | -6.03199 | 417 ft | 10 kts | 58° |
| 2026-05-01 09:55 | 43.56095 | -6.03058 | 424 ft | 20 kts | 108° |
| 2026-05-01 09:55 | 43.56051 | -6.02872 | 415 ft | 21 kts | 108° |
| 2026-05-01 09:55 | 43.56009 | -6.02690 | 424 ft | 18 kts | 108° |
| 2026-05-01 09:56 | 43.55969 | -6.02526 | 421 ft | 18 kts | 108° |
| 2026-05-01 09:56 | 43.55944 | -6.02383 | 425 ft | 10 kts | 88° |
| 2026-05-01 09:56 | 43.55963 | -6.02319 | 422 ft | 0 kts | 64° |
| 2026-05-01 09:56 | 43.55963 | -6.02318 | 422 ft | 1 kts | 64° |
| 2026-05-01 09:57 | 43.55990 | -6.02244 | 421 ft | 17 kts | 60° |
| 2026-05-01 09:57 | 43.56059 | -6.02225 | 420 ft | 8 kts | 327° |
| 2026-05-01 09:57 | 43.56077 | -6.02277 | 420 ft | 0 kts | 287° |
| 2026-05-01 09:58 | 43.56109 | -6.02416 | 416 ft | 50 kts | 288° |
| 2026-05-01 09:58 | 43.56292 | -6.03188 | 426 ft | 116 kts | 288° |
| 2026-05-01 09:59 | 43.56601 | -6.04486 | 504 ft | 161 kts | 288° |
| 2026-05-01 09:59 | 43.56957 | -6.05961 | 1157 ft | 162 kts | 289° |
| 2026-05-01 09:59 | 43.57300 | -6.07402 | 1963 ft | 155 kts | 288° |
| 2026-05-01 09:59 | 43.57638 | -6.08900 | 2428 ft | 175 kts | 287° |
| 2026-05-01 10:00 | 43.58023 | -6.10581 | 2763 ft | 194 kts | 288° |
| 2026-05-01 10:00 | 43.58462 | -6.12458 | 3010 ft | 217 kts | 288° |
| 2026-05-01 10:00 | 43.58939 | -6.14468 | 3553 ft | 223 kts | 288° |
| 2026-05-01 10:00 | 43.59217 | -6.16565 | 4278 ft | 225 kts | 261° |
| 2026-05-01 10:01 | 43.58543 | -6.18462 | 5020 ft | 224 kts | 220° |
| 2026-05-01 10:01 | 43.57201 | -6.19532 | 5779 ft | 223 kts | 200° |
| 2026-05-01 10:01 | 43.55720 | -6.20178 | 6554 ft | 224 kts | 195° |
| 2026-05-01 10:01 | 43.54206 | -6.20721 | 7278 ft | 226 kts | 194° |
| 2026-05-01 10:02 | 43.52683 | -6.21269 | 7988 ft | 227 kts | 194° |
| 2026-05-01 10:02 | 43.51151 | -6.21849 | 8707 ft | 230 kts | 195° |
| 2026-05-01 10:02 | 43.49610 | -6.22465 | 9491 ft | 231 kts | 195° |
| 2026-05-01 10:02 | 43.48059 | -6.23110 | 10261 ft | 234 kts | 195° |
| 2026-05-01 10:03 | 43.46477 | -6.23672 | 10906 ft | 241 kts | 188° |
| 2026-05-01 10:03 | 43.44743 | -6.24060 | 11165 ft | 264 kts | 189° |
| 2026-05-01 10:03 | 43.42837 | -6.24484 | 11406 ft | 288 kts | 189° |
| 2026-05-01 10:03 | 43.40807 | -6.24938 | 11617 ft | 311 kts | 189° |
| 2026-05-01 10:04 | 43.38589 | -6.25438 | 11818 ft | 334 kts | 189° |
| 2026-05-01 10:04 | 43.36227 | -6.25976 | 12323 ft | 344 kts | 189° |
| 2026-05-01 10:04 | 43.33856 | -6.26519 | 13032 ft | 348 kts | 190° |
| 2026-05-01 10:04 | 43.31454 | -6.27068 | 13770 ft | 351 kts | 190° |
| 2026-05-01 10:05 | 43.29027 | -6.27622 | 14421 ft | 355 kts | 190° |
| 2026-05-01 10:05 | 43.26581 | -6.28181 | 15081 ft | 357 kts | 190° |
| 2026-05-01 10:05 | 43.24120 | -6.28744 | 15720 ft | 360 kts | 190° |
| 2026-05-01 10:05 | 43.21647 | -6.29309 | 16375 ft | 362 kts | 190° |
| 2026-05-01 10:06 | 43.19154 | -6.29875 | 16982 ft | 364 kts | 190° |
| 2026-05-01 10:06 | 43.16639 | -6.30443 | 17610 ft | 367 kts | 190° |
| 2026-05-01 10:06 | 43.14111 | -6.31013 | 18232 ft | 369 kts | 190° |
| 2026-05-01 10:06 | 43.11588 | -6.31719 | 18779 ft | 371 kts | 197° |
| 2026-05-01 10:07 | 43.09190 | -6.33023 | 19301 ft | 373 kts | 207° |
| 2026-05-01 10:07 | 43.06914 | -6.34644 | 19792 ft | 375 kts | 207° |
| 2026-05-01 10:07 | 43.04590 | -6.36297 | 20258 ft | 378 kts | 207° |
| 2026-05-01 10:07 | 43.02247 | -6.37960 | 20752 ft | 380 kts | 207° |
| 2026-05-01 10:08 | 42.97516 | -6.41304 | 21724 ft | 385 kts | 207° |
| 2026-05-01 10:08 | 42.95130 | -6.42988 | 22189 ft | 388 kts | 207° |
| 2026-05-01 10:08 | 42.92722 | -6.44688 | 22632 ft | 390 kts | 207° |
| 2026-05-01 10:09 | 42.90302 | -6.46395 | 23049 ft | 393 kts | 207° |
| 2026-05-01 10:09 | 42.87867 | -6.48109 | 23145 ft | 396 kts | 207° |
| 2026-05-01 10:09 | 42.85405 | -6.49837 | 23150 ft | 397 kts | 207° |
| 2026-05-01 10:09 | 42.82947 | -6.51557 | 23136 ft | 398 kts | 207° |
| 2026-05-01 10:10 | 42.80482 | -6.53281 | 23146 ft | 398 kts | 207° |
| 2026-05-01 10:10 | 42.78022 | -6.54999 | 23146 ft | 398 kts | 207° |
| 2026-05-01 10:10 | 42.73074 | -6.58406 | 23146 ft | 398 kts | 207° |
| 2026-05-01 10:11 | 42.70604 | -6.60098 | 23146 ft | 398 kts | 207° |
| 2026-05-01 10:11 | 42.68131 | -6.61793 | 23147 ft | 398 kts | 207° |
| 2026-05-01 10:11 | 42.65661 | -6.63482 | 23145 ft | 398 kts | 207° |
| 2026-05-01 10:11 | 42.63190 | -6.65168 | 23142 ft | 397 kts | 207° |
| 2026-05-01 10:12 | 42.60722 | -6.66850 | 23141 ft | 397 kts | 207° |
| 2026-05-01 10:12 | 42.59085 | -6.67967 | 23139 ft | 397 kts | 207° |
| 2026-05-01 10:12 | 42.53317 | -6.71911 | 23139 ft | 397 kts | 207° |
| 2026-05-01 10:13 | 42.50881 | -6.73574 | 23141 ft | 397 kts | 207° |
| 2026-05-01 10:13 | 42.48415 | -6.75255 | 23144 ft | 397 kts | 207° |
| 2026-05-01 10:13 | 42.45954 | -6.76937 | 23134 ft | 397 kts | 207° |
| 2026-05-01 10:14 | 42.41019 | -6.80293 | 23133 ft | 397 kts | 207° |
| 2026-05-01 10:14 | 42.38549 | -6.81961 | 23135 ft | 397 kts | 207° |
| 2026-05-01 10:14 | 42.36081 | -6.83629 | 23134 ft | 397 kts | 207° |
| 2026-05-01 10:14 | 42.33610 | -6.85302 | 23144 ft | 397 kts | 207° |
| 2026-05-01 10:15 | 42.31139 | -6.86975 | 23145 ft | 397 kts | 207° |
| 2026-05-01 10:15 | 42.28666 | -6.88648 | 23143 ft | 398 kts | 207° |
| 2026-05-01 10:15 | 42.26190 | -6.90320 | 23139 ft | 398 kts | 207° |
| 2026-05-01 10:15 | 42.23720 | -6.91986 | 23141 ft | 398 kts | 207° |
| 2026-05-01 10:16 | 42.21245 | -6.93655 | 23140 ft | 398 kts | 207° |
| 2026-05-01 10:16 | 42.18765 | -6.95319 | 23127 ft | 398 kts | 207° |
| 2026-05-01 10:16 | 42.13788 | -6.98587 | 23127 ft | 398 kts | 206° |
| 2026-05-01 10:17 | 42.11285 | -7.00207 | 23134 ft | 398 kts | 206° |
| 2026-05-01 10:17 | 42.06289 | -7.03436 | 23142 ft | 398 kts | 206° |
| 2026-05-01 10:17 | 42.03791 | -7.05056 | 23135 ft | 398 kts | 207° |
| 2026-05-01 10:18 | 41.98795 | -7.08297 | 23136 ft | 398 kts | 207° |
| 2026-05-01 10:18 | 41.96302 | -7.09916 | 23122 ft | 398 kts | 207° |
| 2026-05-01 10:18 | 41.93888 | -7.11650 | 23125 ft | 398 kts | 213° |
| 2026-05-01 10:19 | 41.91664 | -7.13933 | 23129 ft | 397 kts | 221° |
| 2026-05-01 10:19 | 41.89602 | -7.16333 | 23135 ft | 398 kts | 221° |
| 2026-05-01 10:19 | 41.87507 | -7.18760 | 23132 ft | 398 kts | 221° |
| 2026-05-01 10:20 | 41.83302 | -7.23602 | 23144 ft | 398 kts | 221° |
| 2026-05-01 10:20 | 41.81178 | -7.26048 | 23146 ft | 399 kts | 221° |
| 2026-05-01 10:20 | 41.79101 | -7.28439 | 23146 ft | 399 kts | 221° |
| 2026-05-01 10:20 | 41.76995 | -7.30862 | 23146 ft | 398 kts | 221° |
| 2026-05-01 10:21 | 41.74889 | -7.33284 | 23140 ft | 398 kts | 221° |
| 2026-05-01 10:21 | 41.70681 | -7.38107 | 23147 ft | 399 kts | 221° |
| 2026-05-01 10:21 | 41.68573 | -7.40512 | 23142 ft | 399 kts | 221° |
| 2026-05-01 10:22 | 41.64355 | -7.45328 | 23144 ft | 399 kts | 221° |
| 2026-05-01 10:22 | 41.60824 | -7.49362 | 23142 ft | 399 kts | 221° |
| 2026-05-01 10:23 | 41.58717 | -7.51773 | 23144 ft | 399 kts | 221° |
| 2026-05-01 10:23 | 41.54528 | -7.56564 | 23143 ft | 399 kts | 221° |
| 2026-05-01 10:23 | 41.52422 | -7.58963 | 23132 ft | 399 kts | 221° |
| 2026-05-01 10:24 | 41.48204 | -7.63749 | 22431 ft | 396 kts | 221° |
| 2026-05-01 10:24 | 41.44077 | -7.68422 | 21432 ft | 383 kts | 221° |
| 2026-05-01 10:25 | 41.40071 | -7.72958 | 20516 ft | 372 kts | 220° |
| 2026-05-01 10:25 | 41.36149 | -7.77279 | 19614 ft | 362 kts | 215° |
| 2026-05-01 10:26 | 41.33969 | -7.78932 | 19153 ft | 359 kts | 206° |
| 2026-05-01 10:26 | 41.31715 | -7.80359 | 18675 ft | 357 kts | 206° |
| 2026-05-01 10:26 | 41.27260 | -7.83191 | 17660 ft | 352 kts | 206° |
| 2026-05-01 10:27 | 41.22869 | -7.85988 | 16683 ft | 347 kts | 206° |
| 2026-05-01 10:27 | 41.18807 | -7.89364 | 15675 ft | 345 kts | 223° |
| 2026-05-01 10:28 | 41.17255 | -7.91799 | 15175 ft | 346 kts | 235° |
| 2026-05-01 10:28 | 41.14915 | -7.97386 | 14172 ft | 347 kts | 229° |
| 2026-05-01 10:28 | 41.13078 | -7.99427 | 13642 ft | 345 kts | 211° |
| 2026-05-01 10:29 | 41.08928 | -8.02584 | 12554 ft | 343 kts | 209° |
| 2026-05-01 10:29 | 41.06879 | -8.04109 | 12021 ft | 341 kts | 209° |
| 2026-05-01 10:30 | 41.02751 | -8.07180 | 11070 ft | 335 kts | 209° |
| 2026-05-01 10:30 | 40.98730 | -8.10169 | 10208 ft | 330 kts | 209° |
| 2026-05-01 10:31 | 40.94767 | -8.13108 | 9284 ft | 323 kts | 209° |
| 2026-05-01 10:31 | 40.91061 | -8.16142 | 8822 ft | 304 kts | 225° |
| 2026-05-01 10:32 | 40.89483 | -8.21048 | 8421 ft | 288 kts | 258° |
| 2026-05-01 10:32 | 40.89157 | -8.23620 | 8253 ft | 280 kts | 259° |
| 2026-05-01 10:32 | 40.88550 | -8.28667 | 7954 ft | 277 kts | 259° |
| 2026-05-01 10:33 | 40.87952 | -8.33688 | 7535 ft | 275 kts | 259° |
| 2026-05-01 10:33 | 40.87375 | -8.38654 | 6811 ft | 273 kts | 259° |
| 2026-05-01 10:34 | 40.87089 | -8.41131 | 6423 ft | 272 kts | 259° |
| 2026-05-01 10:34 | 40.86974 | -8.43612 | 6022 ft | 272 kts | 275° |
| 2026-05-01 10:34 | 40.87575 | -8.45963 | 5833 ft | 274 kts | 300° |
| 2026-05-01 10:35 | 40.90477 | -8.49264 | 5582 ft | 279 kts | 325° |
| 2026-05-01 10:35 | 40.92089 | -8.50703 | 5452 ft | 279 kts | 325° |
| 2026-05-01 10:35 | 40.93676 | -8.52114 | 5255 ft | 279 kts | 325° |
| 2026-05-01 10:35 | 40.95305 | -8.53561 | 4800 ft | 279 kts | 325° |
| 2026-05-01 10:36 | 40.98504 | -8.56419 | 3939 ft | 279 kts | 325° |
| 2026-05-01 10:36 | 41.00093 | -8.57841 | 3682 ft | 271 kts | 325° |
| 2026-05-01 10:36 | 41.01622 | -8.59210 | 3568 ft | 258 kts | 325° |
| 2026-05-01 10:37 | 41.03080 | -8.60515 | 3455 ft | 247 kts | 325° |
| 2026-05-01 10:37 | 41.05825 | -8.62924 | 3241 ft | 228 kts | 334° |
| 2026-05-01 10:37 | 41.07293 | -8.63551 | 3151 ft | 218 kts | 349° |
| 2026-05-01 10:38 | 41.08757 | -8.63926 | 3053 ft | 210 kts | 349° |
| 2026-05-01 10:38 | 41.10164 | -8.64293 | 2905 ft | 206 kts | 349° |
| 2026-05-01 10:38 | 41.11589 | -8.64665 | 2595 ft | 210 kts | 348° |
| 2026-05-01 10:38 | 41.13026 | -8.65041 | 2302 ft | 209 kts | 348° |
| 2026-05-01 10:39 | 41.14426 | -8.65407 | 2026 ft | 202 kts | 348° |
| 2026-05-01 10:39 | 41.15774 | -8.65759 | 1775 ft | 192 kts | 348° |
| 2026-05-01 10:39 | 41.17041 | -8.66089 | 1517 ft | 180 kts | 347° |
| 2026-05-01 10:39 | 41.18201 | -8.66389 | 1298 ft | 160 kts | 347° |
| 2026-05-01 10:40 | 41.19248 | -8.66661 | 1077 ft | 149 kts | 346° |
| 2026-05-01 10:40 | 41.20243 | -8.66922 | 887 ft | 143 kts | 346° |
| 2026-05-01 10:40 | 41.21210 | -8.67178 | 695 ft | 141 kts | 347° |
| 2026-05-01 10:40 | 41.22170 | -8.67431 | 538 ft | 140 kts | 347° |
| 2026-05-01 10:41 | 41.23122 | -8.67678 | 336 ft | 139 kts | 347° |
| 2026-05-01 10:41 | 41.24045 | -8.67928 | 217 ft | 125 kts | 348° |
| 2026-05-01 10:41 | 41.25020 | -8.68179 | 195 ft | 31 kts | 351° |
| 2026-05-01 10:42 | 41.25174 | -8.68148 | 183 ft | 17 kts | 14° |
| 2026-05-01 10:42 | 41.25276 | -8.68108 | 179 ft | 13 kts | 22° |
| 2026-05-01 10:42 | 41.25301 | -8.68051 | 180 ft | 5 kts | 98° |
| 2026-05-01 10:42 | 41.25280 | -8.68023 | 181 ft | 8 kts | 152° |
| 2026-05-01 10:43 | 41.25194 | -8.67996 | 188 ft | 12 kts | 169° |
| 2026-05-01 10:43 | 41.25129 | -8.67979 | 191 ft | 7 kts | 169° |
| 2026-05-01 10:43 | 41.25082 | -8.67967 | 191 ft | 11 kts | 169° |
| 2026-05-01 10:43 | 41.24970 | -8.67938 | 194 ft | 22 kts | 169° |
| 2026-05-01 10:44 | 41.24824 | -8.67869 | 209 ft | 20 kts | 149° |
| 2026-05-01 10:44 | 41.24704 | -8.67814 | 209 ft | 16 kts | 168° |
| 2026-05-01 10:44 | 41.24610 | -8.67788 | 214 ft | 13 kts | 169° |
| 2026-05-01 10:44 | 41.24494 | -8.67757 | 220 ft | 20 kts | 169° |
| 2026-05-01 10:45 | 41.24363 | -8.67724 | 227 ft | 18 kts | 169° |
| 2026-05-01 10:45 | 41.24281 | -8.67667 | 233 ft | 10 kts | 133° |
| 2026-05-01 10:45 | 41.24243 | -8.67599 | 236 ft | 12 kts | 126° |
| 2026-05-01 10:45 | 41.24131 | -8.67556 | 238 ft | 20 kts | 169° |
| 2026-05-01 10:46 | 41.23987 | -8.67519 | 238 ft | 22 kts | 169° |
| 2026-05-01 10:46 | 41.23842 | -8.67480 | 239 ft | 18 kts | 168° |
| 2026-05-01 10:46 | 41.23742 | -8.67434 | 239 ft | 11 kts | 136° |
| 2026-05-01 10:46 | 41.23712 | -8.67379 | 241 ft | 5 kts | 123° |
| 2026-05-01 10:47 | 41.23710 | -8.67349 | 242 ft | 3 kts | 83° |
| 2026-05-01 10:47 | 41.23720 | -8.67311 | 244 ft | 5 kts | 68° |
| 2026-05-01 10:47 | 41.23726 | -8.67291 | 245 ft | 1 kts | 68° |
| 2026-05-01 10:47 | 41.23732 | -8.67270 | 245 ft | 4 kts | 69° |
| 2026-05-01 10:48 | 41.23735 | -8.67260 | 245 ft | 0 kts | 69° |